createdAt,value
2022-07-25T00:01:22.067Z,27.93
2022-07-25T00:04:12.246Z,27.78
2022-07-25T00:06:52.978Z,27.72
2022-07-25T00:09:19.846Z,27.61
2022-07-25T00:11:46.833Z,27.56
2022-07-25T00:14:13.756Z,27.54
2022-07-25T00:16:40.870Z,27.52
2022-07-25T00:19:07.722Z,27.54
2022-07-25T00:21:54.525Z,27.41
2022-07-25T00:24:34.896Z,27.61
2022-07-25T00:27:02.943Z,27.71
2022-07-25T00:29:30.161Z,27.72
2022-07-25T00:32:17.500Z,27.88
2022-07-25T00:34:58.094Z,27.92
2022-07-25T00:37:25.137Z,27.92
2022-07-25T00:39:52.621Z,27.85
2022-07-25T00:42:19.598Z,27.54
2022-07-25T00:44:46.472Z,27.46
2022-07-25T00:47:13.229Z,27.31
2022-07-25T00:49:40.113Z,27.18
2022-07-25T00:52:07.349Z,27.27
2022-07-25T00:54:34.306Z,27.27
2022-07-25T00:57:01.244Z,27.35
2022-07-25T00:59:29.167Z,27.41
2022-07-25T01:01:56.026Z,27.51
2022-07-25T01:04:43.554Z,27.58
2022-07-25T01:07:44.491Z,27.56
2022-07-25T01:10:25.064Z,27.56
2022-07-25T01:12:53.560Z,27.55
2022-07-25T01:15:21.481Z,27.56
2022-07-25T01:17:48.471Z,27.52
2022-07-25T01:20:39.538Z,27.56
2022-07-25T01:23:19.983Z,27.49
2022-07-25T01:25:46.880Z,27.62
2022-07-25T01:28:13.903Z,27.67
2022-07-25T01:30:40.974Z,27.63
2022-07-25T01:33:34.535Z,27.57
2022-07-25T01:36:14.939Z,27.72
2022-07-25T01:38:41.851Z,27.55
2022-07-25T01:41:08.523Z,27.43
2022-07-25T01:43:35.436Z,27.59
2022-07-25T01:46:02.309Z,27.61
2022-07-25T01:48:29.289Z,27.46
2022-07-25T01:50:56.108Z,27.36
2022-07-25T01:53:24.023Z,27.46
2022-07-25T01:55:52.230Z,27.13
2022-07-25T01:58:19.231Z,27.25
2022-07-25T02:00:46.730Z,27.36
2022-07-25T02:03:39.600Z,27.40
2022-07-25T02:06:21.009Z,27.57
2022-07-25T02:08:47.933Z,27.15
2022-07-25T02:11:16.850Z,27.28
2022-07-25T02:13:44.701Z,27.36
2022-07-25T02:16:12.078Z,27.33
2022-07-25T02:18:39.084Z,27.10
2022-07-25T02:21:28.565Z,27.23
2022-07-25T02:24:29.576Z,27.03
2022-07-25T02:27:10.076Z,26.91
2022-07-25T02:29:36.864Z,26.74
2022-07-25T02:32:23.563Z,26.76
2022-07-25T02:35:05.281Z,26.82
2022-07-25T02:37:40.126Z,26.67
2022-07-25T02:40:07.422Z,26.52
2022-07-25T02:42:34.453Z,26.53
2022-07-25T02:45:01.636Z,26.51
2022-07-25T02:47:28.486Z,26.52
2022-07-25T02:49:55.476Z,26.46
2022-07-25T02:52:22.241Z,26.49
2022-07-25T02:54:49.227Z,26.53
2022-07-25T02:57:16.910Z,26.48
2022-07-25T02:59:43.868Z,26.77
2022-07-25T03:02:31.645Z,26.81
2022-07-25T03:05:32.625Z,27.01
2022-07-25T03:08:13.059Z,27.12
2022-07-25T03:10:40.090Z,27.06
2022-07-25T03:13:07.005Z,27.14
2022-07-25T03:15:33.863Z,27.08
2022-07-25T03:18:00.626Z,27.01
2022-07-25T03:20:27.538Z,27.00
2022-07-25T03:22:54.319Z,26.97
2022-07-25T03:25:21.918Z,26.91
2022-07-25T03:27:49.066Z,26.93
2022-07-25T03:30:16.055Z,26.91
2022-07-25T03:33:03.646Z,26.96
2022-07-25T03:36:04.651Z,26.97
2022-07-25T03:38:45.354Z,27.05
2022-07-25T03:41:12.609Z,26.86
2022-07-25T03:43:39.656Z,26.86
2022-07-25T03:46:06.602Z,26.87
2022-07-25T03:48:33.681Z,26.79
2022-07-25T03:51:06.449Z,26.77
2022-07-25T03:53:54.068Z,26.84
2022-07-25T03:56:20.964Z,26.64
2022-07-25T03:58:47.811Z,26.69
2022-07-25T04:01:34.677Z,26.52
2022-07-25T04:04:35.681Z,26.45
2022-07-25T04:07:16.221Z,26.29
2022-07-25T04:09:43.101Z,26.09
2022-07-25T04:12:09.975Z,26.23
2022-07-25T04:14:36.836Z,26.38
2022-07-25T04:17:03.986Z,26.47
2022-07-25T04:19:30.903Z,26.30
2022-07-25T04:21:58.631Z,26.31
2022-07-25T04:24:25.497Z,26.35
2022-07-25T04:26:52.373Z,26.57
2022-07-25T04:29:19.127Z,26.40
2022-07-25T04:32:06.791Z,26.56
2022-07-25T04:35:07.652Z,26.63
2022-07-25T04:37:48.391Z,27.21
2022-07-25T04:40:15.258Z,27.57
2022-07-25T04:42:42.030Z,28.03
2022-07-25T04:45:09.050Z,28.25
2022-07-25T04:47:35.762Z,28.18
2022-07-25T04:50:03.099Z,28.40
2022-07-25T04:52:29.934Z,29.18
2022-07-25T04:54:56.712Z,29.34
2022-07-25T04:57:23.505Z,29.80
2022-07-25T04:59:50.292Z,29.48
2022-07-25T05:02:17.725Z,29.76
2022-07-25T05:05:04.683Z,30.19
2022-07-25T05:07:45.286Z,30.34
2022-07-25T05:10:32.729Z,30.35
2022-07-25T05:13:13.278Z,29.86
2022-07-25T05:15:40.300Z,30.46
2022-07-25T05:18:07.140Z,29.93
2022-07-25T05:20:33.945Z,30.91
2022-07-25T05:23:00.851Z,31.11
2022-07-25T05:25:27.735Z,30.26
2022-07-25T05:27:55.910Z,31.22
2022-07-25T05:30:22.970Z,32.01
2022-07-25T05:33:09.737Z,32.47
2022-07-25T05:36:11.683Z,32.79
2022-07-25T05:38:52.225Z,32.33
2022-07-25T05:41:19.323Z,31.61
2022-07-25T05:43:48.814Z,32.46
2022-07-25T05:46:15.658Z,33.24
2022-07-25T05:48:42.882Z,34.10
2022-07-25T05:51:09.953Z,34.07
2022-07-25T05:53:37.102Z,33.73
2022-07-25T05:56:03.975Z,34.26
2022-07-25T05:58:30.780Z,33.78
2022-07-25T06:04:18.097Z,32.99
2022-07-25T06:06:51.098Z,32.86
2022-07-25T06:09:19.185Z,33.55
2022-07-25T06:11:54.463Z,34.20
2022-07-25T06:14:27.001Z,34.18
2022-07-25T06:16:54.207Z,35.23
2022-07-25T06:19:21.173Z,33.67
2022-07-25T06:21:48.020Z,32.92
2022-07-25T06:24:15.120Z,33.62
2022-07-25T06:26:42.845Z,33.63
2022-07-25T06:29:09.748Z,34.47
2022-07-25T06:31:36.584Z,34.99
2022-07-25T06:34:03.752Z,33.92
2022-07-25T06:36:32.520Z,35.15
2022-07-25T06:39:00.006Z,34.62
2022-07-25T06:41:26.907Z,34.86
2022-07-25T06:43:53.784Z,34.94
2022-07-25T06:46:40.787Z,34.53
2022-07-25T06:49:41.750Z,35.36
2022-07-25T06:52:42.752Z,36.18
2022-07-25T06:55:43.761Z,36.93
2022-07-25T06:58:22.932Z,36.34
2022-07-25T07:00:52.881Z,35.79
2022-07-25T07:03:44.826Z,36.46
2022-07-25T07:06:25.170Z,36.18
2022-07-25T07:08:52.066Z,37.08
2022-07-25T07:11:19.300Z,36.75
2022-07-25T07:13:46.197Z,37.13
2022-07-25T07:16:13.103Z,36.90
2022-07-25T07:18:39.932Z,37.80
2022-07-25T07:21:06.808Z,37.98
2022-07-25T07:23:35.762Z,37.99
2022-07-25T07:26:03.451Z,39.69
2022-07-25T07:28:30.228Z,38.59
2022-07-25T07:31:15.908Z,38.84
2022-07-25T07:34:17.771Z,39.74
2022-07-25T07:36:52.338Z,39.42
2022-07-25T07:39:19.107Z,39.12
2022-07-25T07:42:05.767Z,38.61
2022-07-25T07:44:46.191Z,36.69
2022-07-25T07:47:14.658Z,38.17
2022-07-25T07:49:41.483Z,37.90
2022-07-25T07:52:08.292Z,39.08
2022-07-25T07:54:59.059Z,39.51
2022-07-25T07:57:26.240Z,38.05
2022-07-25T07:59:53.026Z,38.19
2022-07-25T08:02:20.004Z,38.42
2022-07-25T08:04:46.912Z,37.79
2022-07-25T08:07:13.815Z,37.33
2022-07-25T08:09:40.570Z,36.61
2022-07-25T08:12:07.443Z,36.50
2022-07-25T08:14:34.248Z,36.88
2022-07-25T08:17:01.071Z,37.18
2022-07-25T08:19:27.944Z,38.44
2022-07-25T08:21:54.786Z,39.11
2022-07-25T08:24:21.620Z,39.14
2022-07-25T08:26:48.560Z,39.13
2022-07-25T08:29:20.651Z,39.63
2022-07-25T08:32:09.825Z,38.22
2022-07-25T08:35:11.800Z,38.41
2022-07-25T08:37:53.083Z,38.39
2022-07-25T08:40:20.723Z,37.84
2022-07-25T08:42:48.230Z,38.56
2022-07-25T08:45:19.595Z,38.49
2022-07-25T08:48:00.807Z,38.56
2022-07-25T08:50:41.550Z,39.17
2022-07-25T08:55:55.760Z,37.37
2022-07-25T08:58:22.542Z,37.92
2022-07-25T09:00:49.335Z,37.44
2022-07-25T09:03:16.335Z,35.80
2022-07-25T09:05:44.848Z,36.00
2022-07-25T09:08:13.075Z,35.35
2022-07-25T09:10:42.460Z,35.09
2022-07-25T09:13:14.201Z,35.05
2022-07-25T09:15:55.420Z,35.73
2022-07-25T09:18:23.483Z,35.94
2022-07-25T09:20:55.332Z,35.56
2022-07-25T09:23:52.859Z,34.84
2022-07-25T09:26:43.026Z,35.02
2022-07-25T09:29:16.370Z,35.49
2022-07-25T09:31:43.308Z,36.22
2022-07-25T09:34:10.654Z,36.12
2022-07-25T09:36:40.006Z,36.70
2022-07-25T09:39:06.952Z,36.36
2022-07-25T09:41:37.928Z,36.27
2022-07-25T09:44:15.286Z,36.77
2022-07-25T09:46:42.108Z,36.84
2022-07-25T09:49:09.874Z,36.70
2022-07-25T09:51:36.897Z,36.02
2022-07-25T09:54:04.318Z,35.74
2022-07-25T09:56:32.665Z,36.09
2022-07-25T09:59:01.560Z,36.24
2022-07-25T10:01:34.441Z,36.83
2022-07-25T10:04:15.520Z,35.06
2022-07-25T10:07:05.888Z,36.34
2022-07-25T10:10:08.895Z,36.53
2022-07-25T10:12:59.753Z,35.95
2022-07-25T10:16:12.895Z,36.42
2022-07-25T10:18:50.667Z,34.81
2022-07-25T10:21:28.330Z,34.40
2022-07-25T10:24:02.653Z,34.95
2022-07-25T10:26:29.673Z,35.75
2022-07-25T10:28:57.527Z,36.16
2022-07-25T10:31:26.944Z,34.53
2022-07-25T10:33:55.407Z,34.94
2022-07-25T10:36:23.482Z,34.85
2022-07-25T10:38:56.327Z,34.86
2022-07-25T10:41:26.018Z,35.91
2022-07-25T10:43:56.178Z,35.81
2022-07-25T10:46:33.933Z,35.44
2022-07-25T10:49:29.042Z,36.43
2022-07-25T10:52:05.280Z,37.23
2022-07-25T10:54:39.015Z,36.10
2022-07-25T10:57:07.262Z,36.47
2022-07-25T10:59:38.253Z,35.68
2022-07-25T11:02:06.813Z,35.50
2022-07-25T11:04:53.901Z,35.69
2022-07-25T11:07:37.387Z,36.35
2022-07-25T11:10:05.931Z,36.53
2022-07-25T11:12:33.513Z,36.22
2022-07-25T11:15:01.825Z,36.29
2022-07-25T11:17:29.842Z,36.80
2022-07-25T11:20:07.577Z,36.78
2022-07-25T11:22:35.525Z,37.15
2022-07-25T11:25:03.813Z,37.52
2022-07-25T11:27:32.069Z,37.21
2022-07-25T11:30:09.268Z,37.22
2022-07-25T11:32:58.920Z,37.09
2022-07-25T11:35:27.196Z,37.09
2022-07-25T11:37:54.245Z,37.53
2022-07-25T11:40:21.479Z,37.92
2022-07-25T11:42:48.378Z,36.75
2022-07-25T11:45:22.683Z,36.92
2022-07-25T11:47:51.176Z,36.64
2022-07-25T11:50:17.974Z,37.09
2022-07-25T11:52:47.991Z,36.81
2022-07-25T11:55:33.967Z,37.31
2022-07-25T11:58:36.944Z,36.41
2022-07-25T12:01:37.968Z,36.82
2022-07-25T12:04:16.145Z,35.94
2022-07-25T12:06:47.686Z,36.05
2022-07-25T12:09:19.723Z,36.82
2022-07-25T12:11:47.799Z,36.54
2022-07-25T12:14:15.073Z,36.90
2022-07-25T12:16:42.309Z,36.84
2022-07-25T12:19:10.472Z,36.23
2022-07-25T12:21:37.648Z,37.21
2022-07-25T12:24:04.795Z,36.63
2022-07-25T12:26:31.668Z,36.81
2022-07-25T12:28:58.522Z,36.62
2022-07-25T12:31:28.748Z,36.91
2022-07-25T12:33:55.946Z,37.00
2022-07-25T12:36:23.064Z,36.41
2022-07-25T12:38:50.009Z,36.27
2022-07-25T12:41:22.910Z,36.86
2022-07-25T12:43:49.955Z,36.50
2022-07-25T12:46:37.113Z,36.04
2022-07-25T12:49:37.983Z,36.23
2022-07-25T12:52:18.445Z,36.10
2022-07-25T12:54:45.260Z,36.09
2022-07-25T12:57:12.721Z,35.48
2022-07-25T12:59:39.591Z,36.19
2022-07-25T13:02:06.754Z,36.43
2022-07-25T13:04:33.716Z,36.60
2022-07-25T13:07:00.953Z,36.12
2022-07-25T13:09:28.511Z,36.03
2022-07-25T13:11:55.548Z,35.53
2022-07-25T13:14:22.481Z,36.38
2022-07-25T13:16:49.448Z,36.84
2022-07-25T13:19:17.050Z,36.94
2022-07-25T13:21:44.197Z,36.48
2022-07-25T13:24:11.349Z,36.52
2022-07-25T13:26:38.635Z,36.97
2022-07-25T13:29:11.535Z,36.54
2022-07-25T13:32:00.162Z,36.74
2022-07-25T13:35:01.022Z,37.65
2022-07-25T13:37:41.422Z,38.13
2022-07-25T13:40:09.104Z,37.83
2022-07-25T13:42:35.925Z,38.13
2022-07-25T13:45:02.904Z,38.48
2022-07-25T13:47:30.661Z,38.75
2022-07-25T13:49:57.557Z,39.07
2022-07-25T13:52:24.539Z,38.70
2022-07-25T13:54:51.318Z,39.18
2022-07-25T13:57:19.514Z,39.04
2022-07-25T14:00:07.085Z,39.10
2022-07-25T14:03:01.911Z,39.39
2022-07-25T14:05:28.800Z,39.54
2022-07-25T14:07:55.848Z,39.00
2022-07-25T14:10:22.658Z,39.38
2022-07-25T14:12:50.299Z,39.35
2022-07-25T14:15:17.668Z,39.25
2022-07-25T14:17:44.602Z,38.87
2022-07-25T14:20:12.086Z,39.32
2022-07-25T14:22:39.765Z,39.65
2022-07-25T14:25:07.079Z,39.83
2022-07-25T14:27:54.066Z,40.18
2022-07-25T14:30:34.638Z,40.05
2022-07-25T14:33:22.097Z,40.38
2022-07-25T14:36:02.576Z,40.69
2022-07-25T14:38:29.513Z,40.76
2022-07-25T14:40:56.361Z,40.78
2022-07-25T14:43:23.303Z,40.66
2022-07-25T14:45:50.156Z,40.50
2022-07-25T14:48:17.098Z,40.47
2022-07-25T14:51:04.102Z,40.04
2022-07-25T14:54:05.108Z,40.15
2022-07-25T14:56:57.576Z,39.77
2022-07-25T14:59:24.994Z,39.84
2022-07-25T15:01:51.838Z,39.82
2022-07-25T15:04:21.904Z,39.83
2022-07-25T15:06:49.286Z,39.29
2022-07-25T15:09:16.421Z,39.34
2022-07-25T15:11:43.227Z,39.38
2022-07-25T15:14:10.149Z,39.44
2022-07-25T15:16:37.907Z,39.37
2022-07-25T15:19:16.319Z,39.37
2022-07-25T15:21:44.394Z,39.25
2022-07-25T15:24:11.472Z,39.05
2022-07-25T15:26:58.085Z,38.74
2022-07-25T15:29:38.493Z,38.86
2022-07-25T15:32:05.759Z,38.96
2022-07-25T15:34:33.429Z,38.70
2022-07-25T15:37:00.334Z,38.60
2022-07-25T15:39:27.198Z,38.15
2022-07-25T15:42:14.182Z,38.40
2022-07-25T15:45:15.298Z,38.43
2022-07-25T15:48:03.120Z,38.28
2022-07-25T15:50:47.916Z,38.49
2022-07-25T15:53:15.386Z,38.54
2022-07-25T15:55:42.367Z,38.59
2022-07-25T15:58:10.207Z,38.54
2022-07-25T16:00:38.624Z,38.53
2022-07-25T16:03:06.428Z,38.65
2022-07-25T16:05:33.290Z,38.26
2022-07-25T16:08:02.996Z,38.11
2022-07-25T16:10:30.779Z,38.11
2022-07-25T16:12:57.676Z,38.35
2022-07-25T16:15:25.260Z,38.35
2022-07-25T16:17:53.765Z,38.41
2022-07-25T16:20:20.578Z,38.30
2022-07-25T16:22:49.080Z,38.34
2022-07-25T16:25:16.038Z,38.29
2022-07-25T16:27:42.957Z,38.24
2022-07-25T16:30:10.032Z,38.29
2022-07-25T16:32:57.156Z,38.34
2022-07-25T16:35:58.174Z,38.17
2022-07-25T16:38:53.404Z,38.17
2022-07-25T16:41:20.287Z,38.10
2022-07-25T16:43:47.071Z,38.00
2022-07-25T16:46:14.088Z,37.78
2022-07-25T16:48:41.419Z,37.64
2022-07-25T16:51:08.407Z,37.64
2022-07-25T16:53:36.680Z,37.88
2022-07-25T16:56:24.257Z,37.94
2022-07-25T16:59:05.786Z,37.99
2022-07-25T17:01:33.444Z,38.05
2022-07-25T17:04:00.909Z,38.02
2022-07-25T17:06:28.278Z,37.92
2022-07-25T17:08:55.554Z,38.08
2022-07-25T17:11:32.240Z,38.01
2022-07-25T17:14:00.655Z,37.71
2022-07-25T17:16:27.725Z,37.58
2022-07-25T17:18:54.550Z,37.43
2022-07-25T17:21:22.072Z,37.20
2022-07-25T17:24:09.186Z,37.13
2022-07-25T17:27:10.210Z,37.03
2022-07-25T17:29:51.335Z,37.13
2022-07-25T17:32:18.131Z,36.96
2022-07-25T17:34:45.378Z,36.66
2022-07-25T17:37:12.368Z,36.61
2022-07-25T17:39:39.308Z,36.26
2022-07-25T17:42:07.416Z,35.90
2022-07-25T17:44:34.747Z,35.69
2022-07-25T17:47:22.213Z,35.24
2022-07-25T17:50:28.850Z,35.25
2022-07-25T17:53:20.600Z,35.34
2022-07-25T17:55:47.621Z,35.18
2022-07-25T17:58:14.464Z,35.04
2022-07-25T18:00:41.276Z,35.05
2022-07-25T18:03:08.292Z,35.16
2022-07-25T18:05:35.120Z,35.26
2022-07-25T18:08:03.147Z,35.35
2022-07-25T18:10:30.654Z,35.42
2022-07-25T18:13:00.846Z,35.46
2022-07-25T18:15:42.281Z,35.21
2022-07-25T18:18:43.274Z,34.84
2022-07-25T18:21:28.228Z,34.83
2022-07-25T18:23:55.261Z,34.74
2022-07-25T18:26:22.233Z,34.78
2022-07-25T18:28:49.199Z,34.92
2022-07-25T18:31:16.172Z,34.78
2022-07-25T18:33:43.133Z,34.82
2022-07-25T18:36:10.024Z,34.83
2022-07-25T18:38:37.357Z,34.65
2022-07-25T18:41:29.072Z,34.92
2022-07-25T18:43:53.958Z,34.76
2022-07-25T18:46:21.383Z,34.60
2022-07-25T18:48:48.332Z,34.53
2022-07-25T18:51:15.264Z,34.57
2022-07-25T18:54:02.263Z,34.60
2022-07-25T18:57:03.286Z,34.46
2022-07-25T18:59:43.774Z,34.46
2022-07-25T19:02:10.700Z,34.25
2022-07-25T19:04:37.751Z,33.98
2022-07-25T19:07:25.278Z,34.09
2022-07-25T19:10:06.169Z,33.85
2022-07-25T19:12:33.085Z,33.61
2022-07-25T19:14:59.938Z,33.77
2022-07-25T19:17:47.260Z,33.78
2022-07-25T19:20:27.908Z,33.78
2022-07-25T19:22:55.845Z,33.77
2022-07-25T19:25:23.020Z,33.56
2022-07-25T19:28:10.294Z,33.00
2022-07-25T19:30:50.880Z,32.20
2022-07-25T19:33:17.958Z,31.41
2022-07-25T19:35:44.790Z,30.91
2022-07-25T19:38:32.281Z,31.02
2022-07-25T19:41:33.276Z,30.57
2022-07-25T19:44:13.830Z,29.85
2022-07-25T19:46:40.786Z,29.38
2022-07-25T19:49:07.998Z,28.84
2022-07-25T19:51:35.816Z,28.83
2022-07-25T19:54:23.351Z,28.86
2022-07-25T19:57:03.846Z,28.99
2022-07-25T19:59:30.700Z,28.94
2022-07-25T20:01:57.738Z,28.86
2022-07-25T20:04:24.731Z,28.92
2022-07-25T20:06:51.581Z,28.61
2022-07-25T20:09:18.334Z,28.34
2022-07-25T20:11:45.458Z,27.66
2022-07-25T20:14:12.456Z,27.49
2022-07-25T20:16:59.424Z,27.42
2022-07-25T20:19:53.424Z,27.65
2022-07-25T20:22:37.545Z,27.10
2022-07-25T20:25:05.587Z,27.35
2022-07-25T20:27:32.675Z,27.57
2022-07-25T20:30:01.339Z,27.16
2022-07-25T20:32:28.140Z,27.12
2022-07-25T20:34:54.928Z,27.14
2022-07-25T20:37:22.224Z,27.28
2022-07-25T20:40:09.398Z,27.08
2022-07-25T20:42:49.854Z,26.84
2022-07-25T20:45:16.901Z,26.93
2022-07-25T20:48:04.433Z,26.91
2022-07-25T20:50:44.774Z,26.92
2022-07-25T20:53:12.002Z,26.87
2022-07-25T20:55:38.773Z,26.72
2022-07-25T20:58:05.753Z,26.80
2022-07-25T21:00:32.629Z,26.55
2022-07-25T21:02:59.719Z,26.49
2022-07-25T21:05:26.901Z,26.20
2022-07-25T21:07:53.916Z,26.29
2022-07-25T21:10:20.734Z,26.07
2022-07-25T21:12:47.519Z,25.84
2022-07-25T21:15:14.999Z,25.85
2022-07-25T21:17:41.906Z,25.96
2022-07-25T21:20:29.326Z,26.20
2022-07-25T21:23:30.423Z,26.38
2022-07-25T21:26:10.857Z,26.57
2022-07-25T21:28:37.757Z,26.67
2022-07-25T21:31:04.808Z,26.32
2022-07-25T21:33:31.542Z,26.33
2022-07-25T21:35:58.462Z,26.37
2022-07-25T21:38:26.931Z,26.59
2022-07-25T21:40:55.925Z,26.34
2022-07-25T21:43:22.707Z,26.37
2022-07-25T21:45:49.912Z,26.52
2022-07-25T21:48:16.862Z,26.46
2022-07-25T21:50:50.358Z,26.30
2022-07-25T21:53:17.481Z,25.50
2022-07-25T21:56:04.356Z,25.62
2022-07-25T21:58:46.486Z,25.68
2022-07-25T22:01:13.548Z,25.62
2022-07-25T22:03:40.683Z,25.64
2022-07-25T22:06:07.884Z,25.82
2022-07-25T22:08:34.722Z,26.13
2022-07-25T22:11:16.005Z,26.36
2022-07-25T22:13:48.903Z,26.35
2022-07-25T22:16:16.652Z,26.47
2022-07-25T22:18:43.591Z,26.43
2022-07-25T22:21:11.036Z,26.50
2022-07-25T22:23:37.880Z,26.48
2022-07-25T22:26:04.730Z,26.35
2022-07-25T22:28:51.394Z,26.51
2022-07-25T22:31:52.561Z,26.08
2022-07-25T22:34:32.949Z,25.48
2022-07-25T22:36:59.801Z,25.42
2022-07-25T22:39:26.815Z,25.64
2022-07-25T22:41:53.982Z,25.77
2022-07-25T22:44:20.822Z,25.07
2022-07-25T22:46:47.744Z,24.73
2022-07-25T22:49:14.657Z,24.61
2022-07-25T22:51:41.623Z,24.48
2022-07-25T22:54:08.443Z,24.45
2022-07-25T22:56:35.520Z,24.60
2022-07-25T22:59:02.458Z,24.51
2022-07-25T23:01:49.509Z,24.61
2022-07-25T23:04:29.995Z,24.57
2022-07-25T23:06:57.077Z,24.66
2022-07-25T23:09:24.140Z,24.58
2022-07-25T23:12:03.255Z,24.60
2022-07-25T23:14:30.269Z,24.47
2022-07-25T23:17:15.924Z,24.59
2022-07-25T23:19:45.733Z,24.67
2022-07-25T23:22:12.674Z,24.40
2022-07-25T23:24:39.666Z,24.38
2022-07-25T23:27:07.109Z,24.63
2022-07-25T23:29:34.136Z,24.69
2022-07-25T23:32:01.222Z,24.74
2022-07-25T23:34:28.251Z,24.85
2022-07-25T23:37:15.490Z,25.04
2022-07-25T23:40:16.443Z,24.97
2022-07-25T23:42:57.063Z,24.96
2022-07-25T23:45:26.363Z,24.96
2022-07-25T23:47:55.110Z,25.00
2022-07-25T23:50:23.160Z,25.09
2022-07-25T23:52:50.170Z,24.91
2022-07-25T23:55:17.196Z,24.93
2022-07-25T23:57:44.158Z,24.99
